Time;durP1;ratioP1;P1;durP2;ratioP2;P2;SDS_P1;SDS_P2;PMS_P1;PMS_P2;Temp;Humidity;BMP_temperature;BMP_pressure;BME280_temperature;BME280_humidity;BME280_pressure;Samples;Min_cycle;Max_cycle;Signal;HPM_P1;HPM_P2
2020/12/03 00:00:42;;;;;;;60.13;35.23;;;3.20;99.90;;;;;;5047548;28;20529;-53
2020/12/03 00:03:19;;;;;;;108.60;47.20;;;3.30;99.90;;;;;;5048135;28;20957;-52
2020/12/03 00:05:56;;;;;;;211.47;70.10;;;3.20;99.90;;;;;;5048636;28;20480;-53
2020/12/03 00:08:24;;;;;;;117.33;51.97;;;3.30;99.90;;;;;;5052062;28;20551;-52
2020/12/03 00:10:52;;;;;;;72.63;41.27;;;3.20;99.90;;;;;;5051294;28;20503;-51
2020/12/03 00:13:24;;;;;;;68.03;39.40;;;3.20;99.90;;;;;;5051421;28;20482;-51
2020/12/03 00:15:54;;;;;;;60.00;36.80;;;3.20;99.90;;;;;;5050934;28;20476;-52
2020/12/03 00:18:22;;;;;;;57.27;35.13;;;3.20;99.90;;;;;;5051830;28;20565;-52
2020/12/03 00:20:50;;;;;;;53.37;34.23;;;3.20;99.90;;;;;;5061403;28;20568;-52
2020/12/03 00:23:17;;;;;;;52.93;35.07;;;3.20;99.90;;;;;;5055311;28;20470;-52
2020/12/03 00:25:47;;;;;;;50.97;34.17;;;3.10;99.90;;;;;;5071054;28;21071;-52
2020/12/03 00:28:15;;;;;;;48.23;31.73;;;3.10;99.90;;;;;;5062948;28;20503;-52
2020/12/03 00:30:45;;;;;;;49.83;33.17;;;3.10;99.90;;;;;;5036014;28;20903;-52
2020/12/03 00:33:17;;;;;;;51.17;34.07;;;3.00;99.90;;;;;;5051332;28;20468;-52
2020/12/03 00:35:44;;;;;;;50.57;33.13;;;3.00;99.90;;;;;;5050960;28;20512;-52
2020/12/03 00:38:12;;;;;;;52.43;34.70;;;3.00;99.90;;;;;;5051390;28;20551;-52
2020/12/03 00:40:39;;;;;;;47.97;33.20;;;3.00;99.90;;;;;;5051304;28;20475;-52
2020/12/03 00:43:07;;;;;;;54.83;33.87;;;3.00;99.90;;;;;;5050836;28;20476;-52
2020/12/03 00:45:35;;;;;;;49.20;34.17;;;3.00;99.90;;;;;;5050418;28;21054;-53
2020/12/03 00:48:02;;;;;;;51.07;33.60;;;2.90;99.90;;;;;;5049041;28;20489;-54
2020/12/03 00:50:30;;;;;;;51.30;34.10;;;3.00;99.90;;;;;;5049506;28;20843;-52
2020/12/03 00:52:57;;;;;;;51.17;34.17;;;3.00;99.90;;;;;;5048789;28;20475;-52
2020/12/03 00:55:25;;;;;;;50.20;32.50;;;3.00;99.90;;;;;;5049066;28;20474;-52
2020/12/03 00:57:52;;;;;;;46.27;32.97;;;2.90;99.90;;;;;;5050920;28;20528;-52
2020/12/03 01:00:22;;;;;;;49.30;33.07;;;3.00;99.90;;;;;;5049370;28;20492;-52
2020/12/03 01:02:51;;;;;;;50.47;33.97;;;3.00;99.90;;;;;;5039379;28;20475;-52
2020/12/03 01:05:19;;;;;;;52.77;35.33;;;3.10;99.90;;;;;;5050386;28;20470;-52
2020/12/03 01:07:47;;;;;;;56.87;36.17;;;3.00;99.90;;;;;;5050447;28;20488;-51
2020/12/03 01:10:24;;;;;;;50.80;33.90;;;3.00;99.90;;;;;;5051302;28;20503;-52
2020/12/03 01:12:51;;;;;;;53.47;34.20;;;3.00;99.90;;;;;;5050502;28;20891;-52
2020/12/03 01:15:21;;;;;;;51.27;33.30;;;2.90;99.90;;;;;;5048776;28;20509;-52
2020/12/03 01:17:49;;;;;;;49.10;32.67;;;3.00;99.90;;;;;;5049735;28;20479;-52
2020/12/03 01:20:26;;;;;;;52.63;35.30;;;3.00;99.90;;;;;;5055585;28;20489;-52
2020/12/03 01:22:54;;;;;;;49.83;33.43;;;3.00;99.90;;;;;;5041269;28;20886;-53
2020/12/03 01:25:24;;;;;;;51.37;34.60;;;3.10;99.90;;;;;;5030787;28;20481;-52
2020/12/03 01:27:54;;;;;;;52.17;34.40;;;3.10;99.90;;;;;;5031090;28;20485;-52
2020/12/03 01:30:23;;;;;;;48.00;32.43;;;3.10;99.90;;;;;;5032469;28;20916;-51
2020/12/03 01:32:51;;;;;;;49.37;33.20;;;3.00;99.90;;;;;;5050393;28;20561;-52
2020/12/03 01:35:21;;;;;;;48.90;32.60;;;3.10;99.90;;;;;;5039502;28;20487;-52
2020/12/03 01:37:50;;;;;;;51.90;32.90;;;3.00;99.90;;;;;;5030350;28;20878;-51
2020/12/03 01:40:21;;;;;;;47.00;32.27;;;3.00;99.90;;;;;;5030303;28;20962;-54
2020/12/03 01:42:49;;;;;;;48.60;31.73;;;3.00;99.90;;;;;;5029724;28;20502;-52
2020/12/03 01:45:51;;;;;;;50.40;33.90;;;3.00;99.90;;;;;;5030004;28;20500;-52
2020/12/03 01:48:28;;;;;;;50.10;33.47;;;2.90;99.90;;;;;;5029951;28;20486;-51
2020/12/03 01:50:55;;;;;;;49.67;34.33;;;3.00;99.90;;;;;;5036847;28;20514;-53
2020/12/03 01:53:23;;;;;;;51.17;34.00;;;3.00;99.90;;;;;;5050012;28;20518;-52
2020/12/03 01:55:51;;;;;;;49.37;33.23;;;3.00;99.90;;;;;;5049583;28;20485;-52
2020/12/03 01:58:35;;;;;;;49.67;34.53;;;3.00;99.90;;;;;;5049983;28;20532;-52
2020/12/03 02:01:05;;;;;;;49.33;33.27;;;3.00;99.90;;;;;;5029628;28;20899;-52
2020/12/03 02:03:32;;;;;;;49.97;33.57;;;2.90;99.90;;;;;;5029672;28;20998;-52
2020/12/03 02:05:59;;;;;;;49.33;33.10;;;2.90;99.90;;;;;;5029100;28;20491;-52
2020/12/03 02:08:27;;;;;;;52.83;34.27;;;2.90;99.90;;;;;;5027593;28;20477;-52
2020/12/03 02:10:54;;;;;;;46.80;32.33;;;2.90;99.90;;;;;;5028975;28;20538;-53
2020/12/03 02:13:21;;;;;;;49.37;32.90;;;2.90;99.90;;;;;;5028269;28;20738;-52
2020/12/03 02:15:49;;;;;;;48.43;32.57;;;3.00;99.90;;;;;;5025784;28;20476;-51
2020/12/03 02:18:17;;;;;;;49.47;33.87;;;2.90;99.90;;;;;;5026740;28;20495;-52
2020/12/03 02:20:45;;;;;;;49.63;33.77;;;2.90;99.90;;;;;;5028132;28;20487;-52
2020/12/03 02:23:16;;;;;;;49.40;32.93;;;3.00;99.90;;;;;;5032058;28;20552;-52
2020/12/03 02:25:44;;;;;;;49.43;34.33;;;3.00;99.90;;;;;;5047955;28;20474;-52
2020/12/03 02:28:12;;;;;;;49.40;34.27;;;2.90;99.90;;;;;;5048460;28;20886;-52
2020/12/03 02:30:39;;;;;;;49.67;33.63;;;2.90;99.90;;;;;;5047682;28;20844;-52
2020/12/03 02:33:06;;;;;;;48.77;33.57;;;3.00;99.90;;;;;;5047341;28;20525;-52
2020/12/03 02:35:33;;;;;;;48.47;33.37;;;3.00;99.90;;;;;;5047722;28;20515;-52
2020/12/03 02:38:01;;;;;;;52.17;34.23;;;3.00;99.90;;;;;;5048342;28;21125;-53
2020/12/03 02:40:29;;;;;;;52.53;35.27;;;2.90;99.90;;;;;;5047800;28;20487;-52
2020/12/03 02:42:57;;;;;;;52.77;34.23;;;2.90;99.90;;;;;;5047600;28;20986;-52
2020/12/03 02:45:24;;;;;;;49.10;33.33;;;2.90;99.90;;;;;;5047288;28;20577;-53
2020/12/03 02:47:51;;;;;;;51.50;32.87;;;2.90;99.90;;;;;;5048025;28;20528;-52
2020/12/03 02:50:19;;;;;;;51.80;34.23;;;2.90;99.90;;;;;;5047615;28;20998;-52
2020/12/03 02:52:46;;;;;;;51.13;33.97;;;2.90;99.90;;;;;;5047175;28;20553;-52
2020/12/03 02:55:14;;;;;;;51.67;33.20;;;2.90;99.90;;;;;;5063196;28;20500;-52
2020/12/03 02:57:41;;;;;;;49.17;34.57;;;2.80;99.90;;;;;;5048697;28;20564;-52
2020/12/03 03:00:09;;;;;;;49.40;33.60;;;2.90;99.90;;;;;;5048549;28;20958;-53
2020/12/03 03:02:36;;;;;;;50.67;32.97;;;2.90;99.90;;;;;;5048862;28;20561;-52
2020/12/03 03:05:04;;;;;;;54.03;33.87;;;2.80;99.90;;;;;;5048595;28;20475;-52
2020/12/03 03:07:32;;;;;;;53.17;34.43;;;2.90;99.90;;;;;;5048373;28;20494;-54
2020/12/03 03:10:00;;;;;;;51.77;33.73;;;2.90;99.90;;;;;;5048614;28;20547;-52
2020/12/03 03:12:28;;;;;;;48.90;33.53;;;2.90;99.90;;;;;;5047364;28;21029;-52
2020/12/03 03:14:55;;;;;;;54.03;34.70;;;2.90;99.90;;;;;;5029830;28;20563;-52
2020/12/03 03:17:22;;;;;;;49.93;33.43;;;2.90;99.90;;;;;;5028875;28;20573;-52
2020/12/03 03:19:50;;;;;;;51.33;32.80;;;2.90;99.90;;;;;;5029111;28;20487;-52
2020/12/03 03:22:17;;;;;;;50.90;33.97;;;2.90;99.90;;;;;;5028500;28;20484;-52
2020/12/03 03:24:44;;;;;;;49.77;33.47;;;2.80;99.90;;;;;;5029224;28;20479;-52
2020/12/03 03:27:12;;;;;;;52.50;34.67;;;2.80;99.90;;;;;;5036717;28;20992;-52
2020/12/03 03:29:40;;;;;;;53.63;34.90;;;2.90;99.90;;;;;;5028746;28;20488;-52
2020/12/03 03:32:07;;;;;;;53.67;33.93;;;2.80;99.90;;;;;;5028345;28;20960;-53
2020/12/03 03:34:34;;;;;;;51.50;32.80;;;2.80;99.90;;;;;;5028726;28;20850;-53
2020/12/03 03:37:03;;;;;;;51.03;33.87;;;2.70;99.90;;;;;;5027819;28;20483;-52
2020/12/03 03:39:31;;;;;;;55.97;34.83;;;2.70;99.90;;;;;;5028582;28;20554;-54
2020/12/03 03:41:58;;;;;;;53.30;34.87;;;2.60;99.90;;;;;;5031198;28;20988;-52
2020/12/03 03:44:25;;;;;;;54.67;34.83;;;2.60;99.90;;;;;;5032211;28;20496;-52
2020/12/03 03:46:53;;;;;;;51.03;32.50;;;2.50;99.90;;;;;;5032046;28;20525;-52
2020/12/03 03:49:20;;;;;;;54.00;35.27;;;2.50;99.90;;;;;;5032173;28;20562;-52
2020/12/03 03:51:48;;;;;;;54.60;34.00;;;2.60;99.90;;;;;;5031906;28;20575;-52
2020/12/03 03:54:15;;;;;;;49.53;33.03;;;2.50;99.90;;;;;;5032324;28;20507;-52
2020/12/03 03:56:43;;;;;;;51.43;32.27;;;2.50;99.90;;;;;;5051581;28;20473;-52
2020/12/03 03:59:10;;;;;;;52.87;34.40;;;2.50;99.90;;;;;;5052304;28;20989;-52
2020/12/03 04:01:37;;;;;;;54.50;34.43;;;2.50;99.90;;;;;;5051822;28;20554;-51
2020/12/03 04:04:05;;;;;;;55.07;34.03;;;2.50;99.90;;;;;;5052077;28;20498;-52
2020/12/03 04:06:33;;;;;;;58.93;36.80;;;2.50;99.90;;;;;;5051157;28;20487;-52
2020/12/03 04:09:00;;;;;;;53.27;33.87;;;2.60;99.90;;;;;;5049757;28;20597;-52
2020/12/03 04:11:27;;;;;;;52.93;34.03;;;2.60;99.90;;;;;;5040377;28;20889;-54
2020/12/03 04:13:54;;;;;;;52.57;34.23;;;2.60;99.90;;;;;;5036045;28;20510;-52
2020/12/03 04:16:22;;;;;;;54.07;34.67;;;2.60;99.90;;;;;;5031946;28;20488;-52
2020/12/03 04:18:49;;;;;;;54.03;33.50;;;2.60;99.90;;;;;;5051344;28;20901;-54
2020/12/03 04:21:17;;;;;;;52.03;33.13;;;2.60;99.90;;;;;;5051285;28;20532;-51
2020/12/03 04:23:44;;;;;;;53.97;33.77;;;2.60;99.90;;;;;;5051706;28;20548;-52
2020/12/03 04:26:12;;;;;;;55.30;35.53;;;2.60;99.90;;;;;;5051353;28;20533;-52
2020/12/03 04:28:40;;;;;;;54.60;34.30;;;2.50;99.90;;;;;;5051446;28;20566;-51
2020/12/03 04:31:08;;;;;;;58.55;41.35;;;2.50;99.90;;;;;;5050416;28;20431;-52
2020/12/03 04:33:35;;;;;;;54.77;35.73;;;2.50;99.90;;;;;;5051268;28;20241;-52
2020/12/03 04:36:05;;;;;;;54.33;34.73;;;2.50;99.90;;;;;;5051263;28;21035;-52
2020/12/03 04:38:33;;;;;;;54.50;35.10;;;2.50;99.90;;;;;;5051190;28;20526;-52
2020/12/03 04:41:03;;;;;;;56.77;35.67;;;2.50;99.90;;;;;;5051483;28;20524;-52
2020/12/03 04:43:38;;;;;;;54.03;34.43;;;2.50;99.90;;;;;;5050578;28;20527;-52
2020/12/03 04:46:21;;;;;;;53.80;34.37;;;2.60;99.90;;;;;;5051012;28;20490;-52
2020/12/03 04:49:23;;;;;;;56.73;35.37;;;2.50;99.90;;;;;;5031094;28;20489;-52
2020/12/03 04:52:25;;;;;;;55.93;34.03;;;2.60;99.90;;;;;;5047171;28;20499;-52
2020/12/03 04:55:06;;;;;;;54.03;35.30;;;2.60;99.90;;;;;;5051535;28;20540;-52
2020/12/03 04:57:41;;;;;;;51.97;33.90;;;2.60;99.90;;;;;;5050032;28;20831;-52
2020/12/03 05:00:22;;;;;;;54.00;34.30;;;2.60;99.90;;;;;;5050802;28;20524;-52
2020/12/03 05:03:27;;;;;;;52.87;33.87;;;2.50;99.90;;;;;;5050540;28;20485;-52
2020/12/03 05:06:13;;;;;;;57.00;35.33;;;2.50;99.90;;;;;;5049539;28;21097;-53
2020/12/03 05:08:54;;;;;;;56.53;35.17;;;2.50;99.90;;;;;;5045744;28;20977;-52
2020/12/03 05:11:26;;;;;;;56.47;33.30;;;2.50;99.90;;;;;;5050561;28;20978;-53
2020/12/03 05:14:22;;;;;;;53.57;34.23;;;2.50;99.90;;;;;;5050563;28;20797;-53
2020/12/03 05:17:10;;;;;;;57.50;35.30;;;2.50;99.90;;;;;;5050101;28;20513;-54
2020/12/03 05:19:41;;;;;;;54.90;34.37;;;2.50;99.90;;;;;;5049841;28;20480;-52
2020/12/03 05:22:19;;;;;;;56.00;33.93;;;2.40;99.90;;;;;;5050343;28;20524;-52
2020/12/03 05:24:46;;;;;;;58.23;34.17;;;2.40;99.90;;;;;;5050047;28;21036;-52
2020/12/03 05:27:24;;;;;;;57.37;35.87;;;2.50;99.90;;;;;;5050166;28;20478;-52
2020/12/03 05:29:55;;;;;;;57.33;34.63;;;2.50;99.90;;;;;;5050341;28;20486;-53
2020/12/03 05:32:23;;;;;;;57.53;35.83;;;2.40;99.90;;;;;;5049384;28;20474;-52
2020/12/03 05:34:50;;;;;;;56.70;34.80;;;2.40;99.90;;;;;;5050392;28;20886;-52
2020/12/03 05:37:20;;;;;;;56.73;34.53;;;2.40;99.90;;;;;;5049768;28;20490;-52
2020/12/03 05:39:54;;;;;;;56.70;35.73;;;2.50;99.90;;;;;;5049821;28;21049;-52
2020/12/03 05:42:26;;;;;;;56.83;34.63;;;2.50;99.90;;;;;;5049723;28;20552;-53
2020/12/03 05:44:56;;;;;;;61.30;36.03;;;2.50;99.90;;;;;;5049981;28;21021;-52
2020/12/03 05:47:28;;;;;;;61.10;35.27;;;2.40;99.90;;;;;;5048691;28;20516;-52
2020/12/03 05:49:59;;;;;;;55.23;35.13;;;2.50;99.90;;;;;;5049665;28;20487;-52
2020/12/03 05:52:28;;;;;;;61.50;36.77;;;2.40;99.90;;;;;;5046300;28;20541;-51
2020/12/03 05:55:03;;;;;;;56.70;35.47;;;2.40;99.90;;;;;;5049193;28;20929;-52
2020/12/03 05:57:35;;;;;;;56.33;35.23;;;2.40;99.90;;;;;;5047036;28;20876;-52
2020/12/03 06:00:20;;;;;;;59.30;35.53;;;2.40;99.90;;;;;;5048710;28;20863;-52
2020/12/03 06:03:03;;;;;;;56.13;35.37;;;2.40;99.90;;;;;;5048734;28;20986;-52
2020/12/03 06:05:39;;;;;;;55.93;33.93;;;2.40;99.90;;;;;;5043432;28;20517;-52
2020/12/03 06:08:29;;;;;;;55.53;33.90;;;2.40;99.90;;;;;;5045202;28;20510;-52
2020/12/03 06:11:13;;;;;;;58.87;35.43;;;2.40;99.90;;;;;;5065187;28;20565;-52
2020/12/03 06:14:08;;;;;;;55.00;34.70;;;2.40;99.90;;;;;;5063618;28;20477;-52
2020/12/03 06:16:44;;;;;;;58.83;35.47;;;2.40;99.90;;;;;;5046166;28;20508;-52
2020/12/03 06:19:39;;;;;;;55.90;34.13;;;2.40;99.90;;;;;;5047095;28;20811;-52
2020/12/03 06:22:17;;;;;;;55.67;33.87;;;2.40;99.90;;;;;;5045453;28;20563;-52
2020/12/03 06:25:02;;;;;;;53.63;32.67;;;2.40;99.90;;;;;;5045394;28;20596;-52
2020/12/03 06:27:45;;;;;;;57.53;34.90;;;2.40;99.90;;;;;;5045657;28;20511;-52
2020/12/03 06:30:23;;;;;;;52.70;32.67;;;2.30;99.90;;;;;;5030662;28;20467;-52
2020/12/03 06:33:25;;;;;;;58.20;34.17;;;2.30;99.90;;;;;;5038811;28;20985;-52
2020/12/03 06:35:58;;;;;;;56.57;34.30;;;2.30;99.90;;;;;;5036708;28;20935;-52
2020/12/03 06:38:37;;;;;;;54.33;33.07;;;2.30;99.90;;;;;;5046184;28;20490;-52
2020/12/03 06:41:39;;;;;;;54.00;33.67;;;2.30;99.90;;;;;;5048850;28;20881;-52
2020/12/03 06:44:17;;;;;;;53.57;33.07;;;2.30;99.90;;;;;;5048554;28;20850;-52
2020/12/03 06:47:25;;;;;;;55.83;33.90;;;2.40;99.90;;;;;;5047186;28;20478;-52
2020/12/03 06:50:28;;;;;;;55.00;34.37;;;2.40;99.90;;;;;;5047384;28;20502;-52
2020/12/03 06:53:54;;;;;;;54.00;33.67;;;2.40;99.90;;;;;;5044315;28;20647;-52
2020/12/03 06:57:27;;;;;;;50.60;31.47;;;2.40;99.90;;;;;;5043903;28;21197;-52
2020/12/03 07:00:39;;;;;;;51.33;32.13;;;2.40;99.90;;;;;;5032722;28;20506;-52
2020/12/03 07:04:10;;;;;;;54.47;32.87;;;2.40;99.90;;;;;;5045423;28;20466;-52
2020/12/03 07:07:06;;;;;;;55.27;30.80;;;2.50;99.90;;;;;;5045352;28;20499;-52
2020/12/03 07:10:23;;;;;;;52.00;31.93;;;2.40;99.90;;;;;;5027241;28;20482;-52
2020/12/03 07:13:24;;;;;;;51.60;31.70;;;2.50;99.90;;;;;;5019021;28;20490;-52
2020/12/03 07:16:42;;;;;;;55.87;33.63;;;2.40;99.90;;;;;;5046974;28;20478;-52
2020/12/03 07:20:06;;;;;;;54.70;32.87;;;2.40;99.90;;;;;;4974041;28;20487;-52
2020/12/03 07:22:38;;;;;;;53.17;33.03;;;2.40;99.90;;;;;;5031022;28;20504;-52
2020/12/03 07:25:07;;;;;;;56.33;33.97;;;2.40;99.90;;;;;;5028166;28;20549;-51
2020/12/03 07:28:17;;;;;;;54.37;33.97;;;2.40;99.90;;;;;;5025656;28;20888;-51
2020/12/03 07:30:52;;;;;;;50.93;31.87;;;2.40;99.90;;;;;;5023382;28;20834;-52
2020/12/03 07:33:32;;;;;;;50.83;30.17;;;2.40;99.90;;;;;;5045382;28;20846;-51
2020/12/03 07:36:41;;;;;;;49.37;29.03;;;2.50;99.90;;;;;;5045267;28;20506;-54
2020/12/03 07:39:14;;;;;;;50.93;31.50;;;2.40;99.90;;;;;;5044238;28;20565;-53
2020/12/03 07:41:50;;;;;;;53.10;30.83;;;2.40;99.90;;;;;;5046629;28;20471;-53
2020/12/03 07:44:33;;;;;;;51.57;31.50;;;2.50;99.90;;;;;;5047719;28;20553;-53
2020/12/03 07:47:34;;;;;;;54.00;30.07;;;2.40;99.90;;;;;;5046826;28;20885;-52
2020/12/03 07:50:05;;;;;;;52.13;32.07;;;2.40;99.90;;;;;;4985581;28;20488;-51
2020/12/03 07:52:36;;;;;;;50.33;31.17;;;2.50;99.90;;;;;;4985624;28;20569;-51
2020/12/03 07:55:30;;;;;;;52.40;31.97;;;2.50;99.90;;;;;;5016830;28;20997;-51
2020/12/03 07:57:58;;;;;;;50.10;31.13;;;2.50;99.90;;;;;;5046191;28;20587;-51
2020/12/03 08:00:46;;;;;;;49.53;30.57;;;2.50;99.90;;;;;;5044870;28;20870;-51
2020/12/03 08:03:49;;;;;;;52.20;31.80;;;2.50;99.90;;;;;;5032759;28;20972;-51
2020/12/03 08:06:28;;;;;;;53.87;31.87;;;2.50;99.90;;;;;;5024346;28;20483;-51
2020/12/03 08:09:23;;;;;;;49.57;29.60;;;2.50;99.90;;;;;;5036230;28;20490;-51
2020/12/03 08:12:09;;;;;;;52.40;31.27;;;2.50;99.90;;;;;;5044608;28;20520;-51
2020/12/03 08:14:46;;;;;;;52.37;32.53;;;2.50;99.90;;;;;;5047101;28;20570;-51
2020/12/03 08:17:53;;;;;;;50.27;31.17;;;2.40;99.90;;;;;;5047739;28;20546;-51
2020/12/03 08:20:42;;;;;;;51.63;30.60;;;2.40;99.90;;;;;;5057403;28;20965;-51
2020/12/03 08:23:13;;;;;;;52.43;31.17;;;2.40;99.90;;;;;;5050660;28;20530;-53
2020/12/03 08:25:48;;;;;;;50.73;32.57;;;2.40;99.90;;;;;;5047781;28;20537;-52
2020/12/03 08:28:24;;;;;;;53.63;32.10;;;2.50;99.90;;;;;;5050204;28;20494;-53
2020/12/03 08:30:51;;;;;;;55.37;32.53;;;2.50;99.90;;;;;;5050788;28;20508;-51
2020/12/03 08:33:27;;;;;;;53.07;32.13;;;2.50;99.90;;;;;;5050644;28;20517;-51
2020/12/03 08:35:58;;;;;;;51.70;31.70;;;2.50;99.90;;;;;;5051049;28;20876;-51
2020/12/03 08:38:30;;;;;;;52.20;30.37;;;2.50;99.90;;;;;;5050854;28;20517;-51
2020/12/03 08:41:00;;;;;;;51.57;32.23;;;2.50;99.90;;;;;;5050783;28;20802;-52
2020/12/03 08:43:30;;;;;;;52.87;32.43;;;2.50;99.90;;;;;;5050558;28;20839;-52
2020/12/03 08:46:05;;;;;;;47.30;29.43;;;2.50;99.90;;;;;;5050431;28;20486;-51
2020/12/03 08:48:37;;;;;;;48.93;29.63;;;2.50;99.90;;;;;;5049674;28;20562;-51
2020/12/03 08:51:08;;;;;;;46.53;29.30;;;2.60;99.90;;;;;;5050149;28;20586;-51
2020/12/03 08:53:36;;;;;;;46.03;29.60;;;2.50;99.90;;;;;;5050500;28;20512;-51
2020/12/03 08:56:25;;;;;;;50.03;29.70;;;2.60;99.90;;;;;;5050704;28;20530;-51
2020/12/03 08:59:02;;;;;;;50.77;28.27;;;2.60;99.90;;;;;;5047743;28;20483;-51
2020/12/03 09:01:33;;;;;;;48.43;28.60;;;2.60;99.90;;;;;;5049005;28;20471;-52
2020/12/03 09:04:03;;;;;;;46.80;29.83;;;2.60;99.90;;;;;;5041321;28;20549;-51
2020/12/03 09:06:33;;;;;;;48.97;30.13;;;2.60;99.90;;;;;;5049441;28;20552;-51
2020/12/03 09:09:02;;;;;;;48.47;31.00;;;2.60;99.90;;;;;;5048833;28;20486;-51
2020/12/03 09:11:35;;;;;;;48.20;29.10;;;2.60;99.90;;;;;;5050174;28;20544;-51
2020/12/03 09:14:03;;;;;;;48.20;29.30;;;2.70;99.90;;;;;;5050770;28;20496;-51
2020/12/03 09:16:32;;;;;;;48.43;30.07;;;2.70;99.90;;;;;;5050133;28;20911;-52
2020/12/03 09:19:00;;;;;;;45.13;28.83;;;2.70;99.90;;;;;;5049781;28;20591;-52
2020/12/03 09:21:30;;;;;;;42.37;27.80;;;2.70;99.90;;;;;;5049958;28;20993;-52
2020/12/03 09:23:59;;;;;;;47.03;29.73;;;2.70;99.90;;;;;;5050252;28;20729;-51
2020/12/03 09:26:30;;;;;;;42.90;27.80;;;2.70;99.90;;;;;;5049463;28;20472;-51
2020/12/03 09:28:59;;;;;;;44.83;28.23;;;2.70;99.90;;;;;;5040401;28;20483;-51
2020/12/03 09:31:28;;;;;;;45.03;28.20;;;2.70;99.90;;;;;;5049562;28;20474;-51
2020/12/03 09:33:56;;;;;;;43.53;27.33;;;2.70;99.90;;;;;;5047661;28;20592;-51
2020/12/03 09:36:25;;;;;;;46.53;29.23;;;2.80;99.90;;;;;;5046447;28;20557;-51
2020/12/03 09:38:56;;;;;;;45.87;28.93;;;2.80;99.90;;;;;;5045712;28;20589;-51
2020/12/03 09:41:24;;;;;;;45.50;27.67;;;2.80;99.90;;;;;;5047420;28;20903;-52
2020/12/03 09:43:53;;;;;;;43.53;28.77;;;2.80;99.90;;;;;;5046066;28;21048;-51
2020/12/03 09:46:25;;;;;;;44.00;28.33;;;2.80;99.90;;;;;;5047031;28;21020;-51
2020/12/03 09:48:53;;;;;;;41.97;26.27;;;2.80;99.90;;;;;;5046633;28;20537;-51
2020/12/03 09:51:22;;;;;;;40.97;26.70;;;2.80;99.90;;;;;;5047010;28;20485;-52
2020/12/03 09:53:52;;;;;;;43.23;28.10;;;2.80;99.90;;;;;;5047205;28;20555;-51
2020/12/03 09:56:19;;;;;;;42.53;27.17;;;2.80;99.90;;;;;;5056141;28;21001;-51
2020/12/03 09:58:47;;;;;;;40.87;26.47;;;2.80;99.90;;;;;;5040290;28;21004;-51
2020/12/03 10:01:16;;;;;;;39.97;25.50;;;2.80;99.90;;;;;;5041123;28;20538;-51
2020/12/03 10:04:15;;;;;;;42.50;26.00;;;2.90;99.90;;;;;;5034302;28;20488;-51
2020/12/03 10:06:55;;;;;;;41.47;26.27;;;2.90;99.90;;;;;;5044750;28;21074;-51
2020/12/03 10:10:03;;;;;;;44.10;27.60;;;2.90;99.90;;;;;;5038949;28;20564;-51
2020/12/03 10:12:44;;;;;;;40.97;26.73;;;2.90;99.90;;;;;;5026019;28;20533;-52
2020/12/03 10:15:18;;;;;;;43.23;26.40;;;2.90;99.90;;;;;;5037514;28;20576;-53
2020/12/03 10:18:21;;;;;;;38.90;25.40;;;2.90;99.90;;;;;;5045647;28;20476;-51
2020/12/03 10:20:50;;;;;;;39.93;26.40;;;2.90;99.90;;;;;;4983591;28;20485;-51
2020/12/03 10:23:35;;;;;;;40.53;25.27;;;3.00;99.90;;;;;;5035289;28;20507;-51
2020/12/03 10:26:41;;;;;;;42.23;26.57;;;2.90;99.90;;;;;;5046270;28;20556;-51
2020/12/03 10:29:31;;;;;;;41.70;26.50;;;2.90;99.90;;;;;;5045987;28;20502;-51
2020/12/03 10:31:59;;;;;;;42.23;27.13;;;2.90;99.90;;;;;;5044355;28;21103;-51
2020/12/03 10:34:31;;;;;;;41.80;26.13;;;3.00;99.90;;;;;;5046042;28;20492;-51
2020/12/03 10:37:04;;;;;;;43.37;26.53;;;2.90;99.90;;;;;;5045592;28;20503;-51
2020/12/03 10:39:38;;;;;;;42.90;26.63;;;3.00;99.90;;;;;;5045450;28;20545;-51
2020/12/03 10:42:10;;;;;;;40.93;25.80;;;3.00;99.90;;;;;;5045965;28;20494;-51
2020/12/03 10:44:41;;;;;;;40.73;26.07;;;3.00;99.90;;;;;;5045824;28;20525;-52
2020/12/03 10:47:13;;;;;;;43.93;25.77;;;3.10;99.90;;;;;;5045572;28;20556;-51
2020/12/03 10:49:43;;;;;;;39.03;25.53;;;3.10;99.90;;;;;;5044993;28;21042;-51
2020/12/03 10:52:11;;;;;;;43.47;27.13;;;3.00;99.90;;;;;;5043491;28;20485;-51
2020/12/03 10:54:38;;;;;;;39.80;24.50;;;3.10;99.90;;;;;;5044079;28;20502;-51
2020/12/03 10:57:15;;;;;;;40.90;25.70;;;3.10;99.90;;;;;;5055671;28;20489;-52
2020/12/03 10:59:42;;;;;;;39.93;25.37;;;3.10;99.90;;;;;;5065798;28;20478;-52
2020/12/03 11:02:21;;;;;;;41.40;25.97;;;3.10;99.90;;;;;;5065269;28;20500;-52
2020/12/03 11:04:49;;;;;;;42.90;26.40;;;3.10;99.90;;;;;;5065155;28;20567;-52
2020/12/03 11:07:17;;;;;;;42.50;27.13;;;3.10;99.90;;;;;;5065634;28;20513;-51
2020/12/03 11:09:52;;;;;;;42.50;26.50;;;3.10;99.90;;;;;;5049049;28;20498;-51
2020/12/03 11:12:20;;;;;;;43.63;26.63;;;3.10;99.90;;;;;;5044607;28;20559;-52
2020/12/03 11:14:48;;;;;;;42.67;27.80;;;3.10;99.90;;;;;;5044912;28;21042;-51
2020/12/03 11:17:44;;;;;;;42.40;26.17;;;3.20;99.90;;;;;;5045201;28;20503;-51
2020/12/03 11:20:36;;;;;;;40.93;25.07;;;3.20;99.90;;;;;;5045421;28;20557;-51
2020/12/03 11:23:10;;;;;;;41.37;26.87;;;3.30;99.90;;;;;;5059763;28;20541;-52
2020/12/03 11:25:37;;;;;;;40.87;26.13;;;3.30;99.90;;;;;;5061410;28;20486;-51
2020/12/03 11:28:30;;;;;;;41.70;26.30;;;3.30;99.90;;;;;;5033923;28;20518;-51
2020/12/03 11:31:02;;;;;;;41.83;25.43;;;3.30;99.90;;;;;;5030840;28;20501;-52
2020/12/03 11:34:44;;;;;;;41.93;26.47;;;3.30;99.90;;;;;;5044876;28;20489;-53
2020/12/03 11:37:36;;;;;;;39.57;25.90;;;3.40;99.90;;;;;;5049245;28;20489;-51
2020/12/03 11:40:06;;;;;;;39.67;26.37;;;3.40;99.90;;;;;;5044876;28;20530;-51
2020/12/03 11:42:39;;;;;;;39.10;25.60;;;3.40;99.90;;;;;;5028371;28;20479;-51
2020/12/03 11:45:34;;;;;;;42.20;26.77;;;3.40;99.90;;;;;;5025010;28;20475;-51
2020/12/03 11:48:15;;;;;;;38.60;24.00;;;3.50;99.90;;;;;;5023625;28;21008;-51
2020/12/03 11:50:43;;;;;;;38.53;25.23;;;3.50;99.90;;;;;;5023484;28;20838;-51
2020/12/03 11:53:10;;;;;;;41.10;25.53;;;3.50;99.90;;;;;;5035796;28;21253;-51
2020/12/03 11:55:39;;;;;;;38.33;24.87;;;3.50;99.90;;;;;;5024954;28;20571;-51
2020/12/03 11:58:08;;;;;;;39.87;25.00;;;3.60;99.90;;;;;;5024496;28;20956;-51
2020/12/03 12:00:36;;;;;;;39.37;25.33;;;3.60;99.90;;;;;;5028151;28;21036;-51
2020/12/03 12:03:08;;;;;;;35.47;23.13;;;3.60;99.90;;;;;;5046755;28;20491;-51
2020/12/03 12:05:46;;;;;;;36.77;25.30;;;3.70;99.90;;;;;;5045825;28;21008;-51
2020/12/03 12:08:22;;;;;;;37.03;24.83;;;3.70;99.90;;;;;;5045401;28;20479;-51
2020/12/03 12:10:55;;;;;;;38.57;24.63;;;3.80;99.90;;;;;;5046606;28;20570;-51
2020/12/03 12:13:22;;;;;;;38.57;25.93;;;3.80;99.90;;;;;;5046143;28;20482;-51
2020/12/03 12:15:50;;;;;;;36.50;25.67;;;3.80;99.90;;;;;;5046219;28;20511;-51
2020/12/03 12:18:18;;;;;;;41.13;25.30;;;3.80;99.90;;;;;;5045779;28;20487;-51
2020/12/03 12:20:46;;;;;;;35.10;24.13;;;3.80;99.90;;;;;;5046418;28;20972;-51
2020/12/03 12:23:13;;;;;;;40.87;26.93;;;3.80;99.90;;;;;;5046074;28;20956;-51
2020/12/03 12:25:41;;;;;;;38.73;25.33;;;3.80;99.90;;;;;;5045093;28;20489;-52
2020/12/03 12:28:09;;;;;;;36.73;25.37;;;3.80;99.90;;;;;;5045929;28;20802;-51
2020/12/03 12:30:36;;;;;;;37.40;25.60;;;3.80;99.90;;;;;;5045052;28;20820;-52
2020/12/03 12:33:04;;;;;;;37.70;25.97;;;3.90;99.90;;;;;;5046079;28;20867;-52
2020/12/03 12:35:31;;;;;;;35.83;25.30;;;3.90;99.90;;;;;;5046098;28;20478;-52
2020/12/03 12:37:58;;;;;;;36.03;24.53;;;3.90;99.90;;;;;;5045269;28;20504;-51
2020/12/03 12:40:26;;;;;;;40.03;23.53;;;3.90;99.90;;;;;;5045918;28;20841;-51
2020/12/03 12:42:54;;;;;;;38.43;25.20;;;3.90;99.90;;;;;;5045216;28;20496;-51
2020/12/03 12:45:21;;;;;;;36.03;25.87;;;3.90;99.90;;;;;;5046169;28;20479;-51
2020/12/03 12:47:49;;;;;;;36.30;24.47;;;3.90;99.90;;;;;;5044207;28;20847;-51
2020/12/03 12:50:17;;;;;;;36.30;23.67;;;3.90;99.90;;;;;;5044042;28;20527;-51
2020/12/03 12:52:45;;;;;;;37.83;25.03;;;3.90;99.90;;;;;;5031965;28;20481;-51
2020/12/03 12:55:13;;;;;;;40.07;25.03;;;3.90;99.90;;;;;;5025897;28;20552;-51
2020/12/03 12:57:40;;;;;;;36.70;24.73;;;3.90;99.90;;;;;;5022195;28;20518;-51
2020/12/03 13:00:07;;;;;;;35.20;24.07;;;3.90;99.90;;;;;;5025413;28;20509;-51
2020/12/03 13:02:35;;;;;;;35.63;24.90;;;4.00;99.90;;;;;;5046789;28;20488;-51
2020/12/03 13:05:02;;;;;;;34.57;22.67;;;4.00;99.90;;;;;;5047088;28;20498;-53
2020/12/03 13:07:31;;;;;;;35.87;24.47;;;4.00;99.90;;;;;;5046673;28;20506;-52
2020/12/03 13:09:58;;;;;;;36.80;24.60;;;4.00;99.90;;;;;;5046571;28;20889;-51
2020/12/03 13:12:26;;;;;;;36.03;24.77;;;4.00;99.90;;;;;;5046805;28;20557;-51
2020/12/03 13:14:53;;;;;;;36.40;24.57;;;4.00;99.90;;;;;;5045957;28;20542;-51